Old Lady — CRAB2 — position and weather

sailwx.info

Track history (hours):
 
Tides and Currents Weather Stations Pressure Air Temp Water Temp Dewpoint Dewpoint Depression Visibility Wind Speed Wind Dir Waves Ship Positions

Old Lady

Last reported at 2018-May-20 17:02 UTC. Time now 2018-May-20 21:54 UTC.
Position N 38°42' W 009°10'.

Length 15 m.

Type: Sailing vessel. MMSI: 263964000.

Date/timePositionNaut miles runAvg speedWind from/ knotsBaromVisibWave heightAir tempDewpointWater temp
2018-May-20 17:02N 38°42' W 009°10'2 8.0
2018-May-20 16:49N 38°41' W 009°12'3 8.0
2018-May-20 16:30N 38°41' W 009°15'2 4.9
2018-May-20 16:00N 38°41' W 009°18'3 4.8
2018-May-20 15:22N 38°41' W 009°22'2 4.2
2018-May-20 14:57N 38°41' W 009°24'1 0.0
2018-May-19 13:20N 38°42' W 009°25'0 0.0
2018-May-19 12:59N 38°42' W 009°25'0 0.0
2018-May-19 12:23N 38°42' W 009°25'0 0.0
2018-May-19 11:47N 38°42' W 009°25'2 3.3
2018-May-19 11:18N 38°41' W 009°23'2 5.6
2018-May-19 10:58N 38°41' W 009°21'4 7.0
2018-May-19 10:23N 38°41' W 009°16'2 5.2
2018-May-19 09:58N 38°41' W 009°13'  
2018-May-13 15:12N 38°41' W 009°09'1 5.9
2018-May-13 15:00N 38°40' W 009°08'2 0.3
2018-May-13 08:56N 38°39' W 009°07'2 3.9
2018-May-13 08:29N 38°40' W 009°08'2 0.1
2018-May-12 17:16N 38°42' W 009°09'2 6.0
2018-May-12 17:00N 38°40' W 009°08'2 1.0
2018-May-12 14:50N 38°39' W 009°06'1 3.0
2018-May-12 14:28N 38°40' W 009°07'  
Track history (hours):
 
Tides and Currents Weather Stations Pressure Air Temp Water Temp Dewpoint Dewpoint Depression Visibility Wind Speed Wind Dir Waves Ship Positions

Old Lady

Last reported at 2018-May-20 17:02 UTC. Time now 2018-May-20 21:54 UTC.
Position N 38°42' W 009°10'.

Length 15 m.

Type: Sailing vessel. MMSI: 263964000.

Date/timePositionNaut miles runAvg speedWind from/ knotsBaromVisibWave heightAir tempDewpointWater temp
2018-May-20 17:02N 38°42' W 009°10'2 8.0
2018-May-20 16:49N 38°41' W 009°12'3 8.0
2018-May-20 16:30N 38°41' W 009°15'2 4.9
2018-May-20 16:00N 38°41' W 009°18'3 4.8
2018-May-20 15:22N 38°41' W 009°22'2 4.2
2018-May-20 14:57N 38°41' W 009°24'1 0.0
2018-May-19 13:20N 38°42' W 009°25'0 0.0
2018-May-19 12:59N 38°42' W 009°25'0 0.0
2018-May-19 12:23N 38°42' W 009°25'0 0.0
2018-May-19 11:47N 38°42' W 009°25'2 3.3
2018-May-19 11:18N 38°41' W 009°23'2 5.6
2018-May-19 10:58N 38°41' W 009°21'4 7.0
2018-May-19 10:23N 38°41' W 009°16'2 5.2
2018-May-19 09:58N 38°41' W 009°13'  
2018-May-13 15:12N 38°41' W 009°09'1 5.9
2018-May-13 15:00N 38°40' W 009°08'2 0.3
2018-May-13 08:56N 38°39' W 009°07'2 3.9
2018-May-13 08:29N 38°40' W 009°08'2 0.1
2018-May-12 17:16N 38°42' W 009°09'2 6.0
2018-May-12 17:00N 38°40' W 009°08'2 1.0
2018-May-12 14:50N 38°39' W 009°06'1 3.0
2018-May-12 14:28N 38°40' W 009°07'  

Dump ship's entire track history